Date,TemperatureHighF,TemperatureAvgF,TemperatureLowF,DewpointHighF,DewpointAvgF,DewpointLowF,HumidityHigh,HumidityAvg,HumidityLow,PressureMaxIn,PressureMinIn,WindSpeedMaxMPH,WindSpeedAvgMPH,GustSpeedMaxMPH,PrecipitationSumIn
2012-10-14,84.2,80.1,76.3,71.4,69.5,67.0,83,71,57,30.20,30.09,7,2,13,0.01
2012-10-15,82.6,81.7,78.4,68.2,65.3,64.6,71,58,55,30.08,30.02,2,2,6,0.00
2012-10-16,78.3,76.9,73.9,67.5,66.3,65.4,80,70,68,30.04,30.00,2,0,5,0.00
2012-10-17,77.0,76.1,75.2,66.2,65.5,64.7,71,70,68,30.02,30.00,0,0,2,0.00
2012-10-18,78.1,76.7,75.7,67.2,66.1,64.9,75,70,64,30.07,30.02,2,0,4,0.00
2012-10-19,79.2,77.7,75.9,64.6,63.6,62.4,68,62,57,30.03,30.01,3,2,7,0.00
2012-10-20,86.4,81.4,77.2,68.8,66.1,62.4,73,60,45,30.03,29.96,5,2,10,0.00
2012-10-21,84.7,80.4,76.3,65.6,63.8,61.9,68,57,48,30.04,29.97,5,1,11,0.00
2012-10-23,77.9,77.1,76.3,70.0,69.0,67.7,81,76,71,30.01,29.97,0,0,0,0.00
2012-10-25,79.5,79.2,79.0,73.4,73.2,73.0,83,82,81,30.03,30.00,0,0,0,0.00
2012-10-27,97.9,83.4,71.8,72.1,68.6,66.4,88,62,38,30.14,30.01,1,0,3,0.00
2012-10-28,83.1,77.9,74.1,70.7,68.0,63.9,88,73,53,30.08,30.04,2,0,5,0.00
2012-10-29,77.0,76.8,76.6,67.3,67.2,66.9,73,72,72,30.11,30.10,1,0,3,0.00
2012-10-30,77.5,76.5,75.2,66.3,66.0,65.6,74,70,68,30.13,30.08,1,0,2,0.00
2012-11-3,92.5,81.2,71.6,69.9,66.7,64.7,84,62,44,30.05,29.96,0,0,2,0.00
2012-11-4,98.4,89.2,83.1,67.4,64.3,61.4,59,45,31,30.05,29.98,0,0,2,0.00
2012-11-6,75.0,74.8,74.5,68.4,67.6,66.8,81,78,76,30.01,29.99,1,0,2,0.00
2012-11-10,82.2,79.1,76.1,66.3,62.0,57.8,71,57,45,30.15,30.09,3,1,5,0.00
2012-11-11,82.6,77.9,73.8,64.5,62.4,58.8,72,60,47,30.12,30.07,3,1,6,0.00
2012-11-12,88.9,80.9,73.4,65.1,62.3,59.4,74,54,38,30.17,30.08,2,1,6,0.00
2012-11-14,76.5,76.2,75.7,63.6,63.0,62.7,65,64,63,30.17,30.14,2,1,4,0.00
2012-11-15,72.1,72.1,72.1,63.4,63.4,63.4,74,74,74,30.17,30.17,0,0,2,0.00
2012-11-16,73.9,73.3,72.3,62.1,61.8,61.4,70,67,66,30.15,30.15,1,0,2,0.00
2012-11-17,81.9,75.5,71.8,68.4,65.4,61.2,88,72,51,30.15,30.08,2,1,4,0.01
2012-11-18,86.4,80.1,75.9,65.9,63.8,60.6,69,58,43,30.18,30.08,3,1,8,0.00
2012-11-20,72.7,72.6,72.5,65.4,65.3,65.2,78,78,78,30.10,30.09,0,0,1,0.00
2012-11-22,82.9,82.6,82.0,69.5,69.4,69.1,65,64,64,30.02,30.00,0,0,1,0.00
2012-11-23,77.5,76.6,75.4,69.4,68.7,68.1,79,77,75,30.03,30.03,0,0,1,0.00
2012-11-29,72.3,71.4,70.5,64.8,64.6,64.4,82,79,77,30.12,30.11,0,0,0,0.00
2012-11-30,64.4,64.4,64.4,61.1,61.1,61.1,89,89,89,30.07,30.07,0,0,1,0.00
2012-12-1,96.8,81.0,73.2,69.3,67.7,65.8,83,66,37,30.13,30.02,0,0,1,0.00
2012-12-2,75.7,73.1,71.1,70.7,69.5,68.0,91,89,82,30.04,30.00,1,0,4,0.00
2012-12-5,76.5,76.4,76.3,71.6,71.5,71.4,85,85,85,30.07,30.06,0,0,1,0.00
2012-12-8,78.3,77.9,76.5,67.3,66.8,66.0,73,69,67,30.03,30.03,1,0,3,0.00
2012-12-9,79.9,77.3,74.7,67.4,66.7,65.0,77,70,62,30.03,30.01,2,1,8,0.00